Chadstone Weather > Observations for 26/09/20

Select Day:



Observations
Time Temp Hum DP Wind Gust Dir Rain >9am Press
C % C kph kph mm hPa
00:00 7.6 93 6.5 2.6 7.2 W 8.4 1013.8
00:10 7.6 93 6.5 2.6 7.2 W 8.4 1013.8
00:20 7.6 93 6.5 2.6 7.2 W 8.4 1013.9
00:30 7.6 93 6.5 2.6 7.2 W 8.4 1013.8
00:40 7.6 93 6.5 2.6 7.2 W 8.4 1013.8
00:50 7.6 93 6.5 2.6 7.2 W 8.4 1013.9
01:00 7.6 93 6.5 2.6 7.2 W 8.4 1013.8
01:10 7.6 93 6.5 2.6 7.2 W 8.4 1013.9
01:20 7.6 93 6.5 2.6 7.2 W 8.4 1013.8
01:30 7.1 85 4.8 9.2 17.3 WNW 9.3 1013.4
01:40 7.1 85 4.8 9.2 17.3 WSW 9.3 1012.8
01:50 7.1 85 4.8 8.6 12.2 W 9.3 1012.9
02:00 7.1 85 4.8 8.6 12.2 W 9.3 1013.0
02:10 7.1 85 4.8 8.6 12.2 W 9.3 1012.8
02:20 7.1 85 4.8 8.6 12.2 W 9.3 1012.8
02:30 7.1 85 4.8 8.6 12.2 W 9.3 1012.6
02:40 7.1 85 4.8 8.6 12.2 W 9.3 1012.5
02:50 7.1 85 4.8 8.6 12.2 W 9.3 1012.5
03:00 7.1 85 4.8 8.6 12.2 W 9.3 1012.3
03:10 7.1 85 4.8 8.6 12.2 W 9.3 1012.2
03:20 7.1 85 4.8 8.6 12.2 W 9.3 1012.3
03:30 7.1 85 4.8 8.6 12.2 W 9.3 1012.2
03:40 7.1 85 4.8 8.6 12.2 W 9.3 1012.3
03:50 7.1 85 4.8 8.6 12.2 W 9.3 1012.1
04:00 7.1 85 4.8 8.6 12.2 W 9.3 1012.3
04:10 7.1 85 4.8 8.6 12.2 W 9.3 1012.4
04:20 7.1 85 4.8 8.6 12.2 W 9.3 1012.5
04:30 7.1 85 4.8 8.6 12.2 W 9.3 1012.4
04:40 7.1 85 4.8 8.6 12.2 W 9.3 1012.5
04:50 7.1 85 4.8 8.6 12.2 W 9.3 1012.6
05:00 7.1 85 4.8 8.6 12.2 W 9.3 1012.9
05:10 7.1 85 4.8 8.6 12.2 W 9.3 1013.5
05:20 7.1 85 4.8 8.6 12.2 W 9.3 1013.3
05:30 7.1 85 4.8 8.6 12.2 W 9.3 1013.3
05:40 7.1 85 4.8 8.6 12.2 W 9.3 1013.8
05:50 7.1 85 4.8 8.6 12.2 W 9.3 1014.1
06:00 7.1 85 4.8 8.6 12.2 W 9.3 1014.6
06:10 7.1 85 4.8 8.6 12.2 W 9.3 1014.9
06:20 7.1 85 4.8 8.6 12.2 W 9.3 1015.2
06:30 7.1 85 4.8 8.6 12.2 W 9.3 1015.6
06:40 7.1 85 4.8 8.6 12.2 W 9.3 1015.7
06:50 7.1 85 4.8 8.6 12.2 W 9.3 1015.8
07:00 7.1 85 4.8 8.6 12.2 W 9.3 1016.0
07:10 7.1 85 4.8 8.6 12.2 W 9.3 1016.5
07:20 7.1 85 4.8 8.6 12.2 W 9.3 1016.6
07:30 7.1 85 4.8 8.6 12.2 W 9.3 1017.0
07:40 7.1 85 4.8 8.6 12.2 W 9.3 1017.2
07:50 7.1 85 4.8 8.6 12.2 W 9.3 1017.6
08:00 7.1 85 4.8 8.6 12.2 W 9.3 1017.7
08:10 7.1 85 4.8 8.6 12.2 W 9.3 1018.0
08:20 7.1 85 4.8 8.6 12.2 W 9.3 1018.3
08:30 7.1 85 4.8 8.6 12.2 W 9.3 1018.7
08:40 7.1 85 4.8 8.6 12.2 W 9.3 1018.9
08:50 7.1 85 4.8 8.6 12.2 W 9.3 1019.0
09:00 7.1 85 4.8 8.6 12.2 W 0.0 1019.2
09:10 7.1 85 4.8 8.6 12.2 W 0.0 1019.2
09:20 7.1 85 4.8 8.6 12.2 W 0.0 1019.2
09:30 7.1 85 4.8 8.6 12.2 W 0.0 1019.3
09:40 7.1 85 4.8 8.6 12.2 W 0.0 1019.6
09:50 7.1 85 4.8 8.6 12.2 W 0.0 1019.5
10:00 7.1 85 4.8 8.6 12.2 W 0.0 1019.4
10:10 7.1 85 4.8 8.6 12.2 W 0.0 1019.6
10:20 7.1 85 4.8 8.6 12.2 W 0.0 1019.5
10:30 7.1 85 4.8 8.6 12.2 W 0.0 1019.5
10:40 7.1 85 4.8 8.6 12.2 W 0.0 1019.9
10:50 7.1 85 4.8 8.6 12.2 W 0.0 1019.9
11:00 7.1 85 4.8 8.6 12.2 W 0.0 1019.7
11:10 7.1 85 4.8 8.6 12.2 W 0.0 1020.0
11:20 11.4 72 6.5 7.2 18.4 WSW 0.0 1019.9
11:30 11.9 72 7.0 4.9 13.3 SW 0.0 1019.9
11:40 12.3 72 7.4 5.3 25.6 SSW 0.0 1020.2
11:50 12.5 72 7.6 8.9 25.6 SW 0.0 1020.1
12:00 11.8 73 7.1 7.1 18.4 SW 0.3 1020.6
12:10 11.3 79 7.8 6.5 17.3 SW 0.3 1020.7
12:20 11.7 82 8.7 9.1 25.6 WSW 0.3 1020.5
12:30 12.2 80 8.9 6.8 24.5 WNW 0.3 1020.4
12:40 11.4 78 7.7 7.6 24.5 S 0.3 1020.4
12:50 11.6 80 8.3 5.4 14.8 W 0.3 1020.3
13:00 12.1 79 8.6 4.8 13.3 SW 0.3 1020.3
13:10 12.7 75 8.4 6.5 13.3 W 0.3 1020.2
13:20 13.3 73 8.6 6.4 19.4 W 0.3 1020.4
13:30 13.0 68 7.2 8.0 20.9 SW 0.3 1020.3
13:40 13.1 70 7.8 7.9 18.4 SW 0.3 1020.4
13:50 12.9 72 8.0 4.9 18.4 W 0.3 1020.4
14:00 12.8 73 8.1 4.2 15.8 SW 0.3 1020.6
14:10 13.1 69 7.5 5.1 18.4 WSW 0.3 1020.6
14:20 13.3 66 7.1 5.1 17.3 SSW 0.3 1020.7
14:30 13.6 65 7.1 5.5 17.3 SW 0.3 1020.6
14:40 13.6 63 6.7 4.4 12.2 SW 0.3 1020.7
14:50 13.2 64 6.5 5.7 17.3 SW 0.3 1021.0
15:00 12.9 71 7.8 7.4 17.3 WSW 0.6 1021.0
15:10 12.6 74 8.1 4.3 12.2 SW 0.6 1020.8
15:20 12.6 75 8.3 4.8 11.2 SW 0.6 1020.3
15:30 12.7 73 8.0 7.0 19.4 SW 0.6 1020.4
15:40 13.1 74 8.6 6.6 15.8 WSW 0.6 1020.4
15:50 13.2 70 7.9 8.4 20.9 WSW 0.6 1020.6
16:00 13.1 67 7.1 9.6 25.6 WSW 0.6 1020.8
16:10 13.0 68 7.2 6.8 22.0 WNW 0.6 1020.9
16:20 12.9 71 7.8 4.9 14.8 WNW 0.6 1021.0
16:30 12.7 71 7.6 10.3 24.5 WSW 0.6 1021.1
16:40 12.7 71 7.6 6.9 20.9 SSW 0.6 1021.2
16:50 12.9 70 7.6 7.0 18.4 W 0.6 1021.5
17:00 12.8 69 7.3 6.5 19.4 SW 0.6 1021.7
17:10 12.3 71 7.2 4.9 14.8 SSW 0.6 1022.0
17:20 11.8 74 7.3 3.3 8.6 S 0.6 1022.0
17:30 11.6 75 7.3 2.2 8.6 SSW 0.6 1022.1
17:40 11.5 76 7.4 2.2 7.2 SSW 0.9 1022.5
17:50 11.3 80 8.0 4.5 13.3 SSW 1.2 1022.7
18:00 11.1 82 8.1 1.8 6.1 WSW 1.2 1022.7
18:10 10.9 85 8.5 2.3 8.6 WSW 1.2 1022.8
18:20 10.8 86 8.6 4.6 15.8 W 1.2 1022.8
18:30 10.7 87 8.6 7.3 17.3 WSW 1.2 1022.9
18:40 10.8 87 8.7 5.7 15.8 WNW 1.2 1023.4
18:50 10.8 87 8.7 6.3 19.4 WNW 1.5 1023.5
19:00 10.5 87 8.4 8.6 22.0 W 1.5 1023.3
19:10 10.4 87 8.3 6.9 15.8 WSW 1.5 1023.5
19:20 10.3 88 8.4 4.7 13.3 W 1.5 1023.6
19:30 10.3 88 8.4 6.7 15.8 WNW 1.5 1023.6
19:40 10.4 89 8.7 7.5 17.3 WSW 1.5 1023.8
19:50 10.4 89 8.7 8.4 14.8 WSW 1.5 1024.0
20:00 10.5 89 8.8 7.2 23.4 WSW 1.5 1024.1
20:10 10.5 89 8.8 8.4 20.9 WSW 1.5 1024.3
20:20 10.4 88 8.5 9.4 23.4 W 1.5 1024.5
20:30 10.4 88 8.5 9.1 19.4 SSW 1.5 1024.5
20:40 10.4 88 8.5 7.1 15.8 WSW 1.5 1024.7
20:50 10.4 88 8.5 6.9 14.8 W 1.5 1024.9
21:00 10.4 88 8.5 8.2 20.9 W 1.5 1024.9
21:10 10.4 88 8.5 9.3 18.4 WSW 1.5 1024.9
21:20 10.4 88 8.5 7.7 18.4 WSW 1.5 1025.1
21:30 10.4 89 8.7 6.6 14.8 WSW 1.5 1025.1
21:40 10.4 89 8.7 8.1 18.4 W 1.5 1025.1
21:50 10.4 89 8.7 7.2 19.4 SW 1.5 1025.2
22:00 10.4 89 8.7 6.7 18.4 W 1.5 1025.2
22:10 10.3 89 8.6 8.8 23.4 W 1.5 1025.3
22:20 10.3 89 8.6 8.2 19.4 W 1.5 1025.2
22:30 10.3 89 8.6 8.3 20.9 WNW 1.5 1025.2
22:40 10.3 89 8.6 8.9 19.4 WNW 1.5 1025.1
22:50 10.4 89 8.7 6.0 11.2 WNW 1.5 1025.0
23:00 10.4 89 8.7 8.8 19.4 NW 1.5 1025.2
23:10 10.2 88 8.3 5.6 15.8 SSW 1.5 1025.3
23:20 10.1 88 8.2 9.8 23.4 WNW 1.5 1025.2
23:30 10.1 88 8.2 7.4 18.4 W 1.5 1025.4
23:40 10.1 89 8.4 10.6 20.9 WNW 1.5 1025.4
23:50 10.1 89 8.4 8.7 18.4 WNW 1.5 1025.6